Time;durP1;ratioP1;P1;durP2;ratioP2;P2;SDS_P1;SDS_P2;PMS_P1;PMS_P2;Temp;Humidity;BMP_temperature;BMP_pressure;BME280_temperature;BME280_humidity;BME280_pressure;Samples;Min_cycle;Max_cycle;Signal;HPM_P1;HPM_P2
2022/01/21 00:00:21;;;;;;;17.67;7.20;;;;;;;;;;4732493;30;20057;-74
2022/01/21 00:02:46;;;;;;;26.40;7.60;;;;;;;;;;4740573;30;20127;-74
2022/01/21 00:05:12;;;;;;;20.40;8.43;;;;;;;;;;4739938;30;20056;-76
2022/01/21 00:07:37;;;;;;;23.73;9.47;;;;;;;;;;4733520;30;20116;-76
2022/01/21 00:10:04;;;;;;;17.27;7.37;;;;;;;;;;4745497;30;20851;-75
2022/01/21 00:12:31;;;;;;;16.48;8.05;;;;;;;;;;4734756;30;20045;-75
2022/01/21 00:14:56;;;;;;;;;;;;;;;;;;4737835;30;20371;-72
2022/01/21 00:17:23;;;;;;;20.00;7.40;;;;;;;;;;4740008;30;19922;-73
2022/01/21 00:19:52;;;;;;;;;;;;;;;;;;4729311;30;20087;-73
2022/01/21 00:30:47;;;;;;;22.92;7.93;;;;;;;;;;4727178;30;20146;-75
2022/01/21 00:33:12;;;;;;;15.93;7.53;;;;;;;;;;4740686;30;20087;-75
2022/01/21 00:35:37;;;;;;;16.47;7.13;;;;;;;;;;4739457;30;20506;-75
2022/01/21 00:38:03;;;;;;;14.90;6.87;;;;;;;;;;4741463;30;20028;-75
2022/01/21 00:40:30;;;;;;;12.23;6.40;;;;;;;;;;4745801;30;20041;-75
2022/01/21 00:43:11;;;;;;;18.73;7.43;;;;;;;;;;4746856;30;20063;-75
2022/01/21 00:45:37;;;;;;;17.45;7.40;;;;;;;;;;4752579;30;20486;-75
2022/01/21 00:48:03;;;;;;;16.17;7.28;;;;;;;;;;4745529;30;20111;-75
2022/01/21 00:50:28;;;;;;;13.57;6.80;;;;;;;;;;4737493;30;20179;-72
2022/01/21 00:52:54;;;;;;;20.58;6.70;;;;;;;;;;4746261;30;21301;-72
2022/01/21 00:55:19;;;;;;;19.97;5.83;;;;;;;;;;4749149;30;20097;-73
2022/01/21 00:57:45;;;;;;;20.77;7.27;;;;;;;;;;4740831;30;20511;-72
2022/01/21 01:00:11;;;;;;;16.20;6.80;;;;;;;;;;4751159;30;20037;-72
2022/01/21 01:02:37;;;;;;;;;;;;;;;;;;4756451;30;20135;-73
2022/01/21 01:05:03;;;;;;;28.30;10.32;;;;;;;;;;4752610;30;20017;-72
2022/01/21 01:07:29;;;;;;;;;;;;;;;;;;4744474;30;20036;-72
2022/01/21 01:09:56;;;;;;;10.65;5.65;;;;;;;;;;4739065;30;20284;-75
2022/01/21 01:20:18;;;;;;;21.27;6.93;;;;;;;;;;4735257;30;20541;-72
2022/01/21 01:27:55;;;;;;;13.50;6.18;;;;;;;;;;4731444;30;20060;-73
2022/01/21 01:30:25;;;;;;;19.77;6.40;;;;;;;;;;4743986;30;20052;-75
2022/01/21 01:32:54;;;;;;;19.45;6.72;;;;;;;;;;4747326;30;20044;-75
2022/01/21 01:35:20;;;;;;;14.82;7.40;;;;;;;;;;4742577;30;20040;-75
2022/01/21 01:40:36;;;;;;;11.85;5.97;;;;;;;;;;4749320;30;20048;-75
2022/01/21 01:49:23;;;;;;;26.25;6.50;;;;;;;;;;4746991;30;20087;-72
2022/01/21 01:51:18;;;;;;;17.27;5.93;;;;;;;;;;4734226;30;20505;-75
2022/01/21 01:53:48;;;;;;;18.77;6.43;;;;;;;;;;4745225;30;20064;-75
2022/01/21 01:56:15;;;;;;;14.80;7.28;;;;;;;;;;4735589;30;20041;-75
2022/01/21 01:58:42;;;;;;;23.88;6.85;;;;;;;;;;4735929;30;20036;-75
2022/01/21 02:01:08;;;;;;;20.52;7.35;;;;;;;;;;4731111;30;20558;-75
2022/01/21 02:03:34;;;;;;;14.82;6.35;;;;;;;;;;4758974;30;20190;-75
2022/01/21 02:06:00;;;;;;;21.02;6.95;;;;;;;;;;4741927;30;20052;-75
2022/01/21 02:08:28;;;;;;;20.77;6.47;;;;;;;;;;4738993;30;20048;-75
2022/01/21 02:10:53;;;;;;;16.05;7.32;;;;;;;;;;4736524;30;20068;-75
2022/01/21 02:13:25;;;;;;;19.40;7.40;;;;;;;;;;4738291;30;20084;-73
2022/01/21 02:16:01;;;;;;;14.07;6.80;;;;;;;;;;4724504;30;20048;-72
2022/01/21 02:21:34;;;;;;;20.52;6.82;;;;;;;;;;4725682;30;20064;-73
2022/01/21 02:24:06;;;;;;;19.20;7.13;;;;;;;;;;4735464;30;20072;-73
2022/01/21 02:26:32;;;;;;;15.60;7.30;;;;;;;;;;4738160;30;20040;-72
2022/01/21 02:29:00;;;;;;;14.68;6.20;;;;;;;;;;4745487;30;20037;-72
2022/01/21 02:31:25;;;;;;;13.85;5.43;;;;;;;;;;4741074;30;20048;-75
2022/01/21 02:33:51;;;;;;;12.40;5.80;;;;;;;;;;4752609;30;20059;-75
2022/01/21 02:36:16;;;;;;;20.87;8.00;;;;;;;;;;4735965;30;20120;-75
2022/01/21 02:38:42;;;;;;;10.50;5.17;;;;;;;;;;4739351;30;20045;-75
2022/01/21 02:41:07;;;;;;;14.63;6.10;;;;;;;;;;4730756;30;20131;-75
2022/01/21 02:43:33;;;;;;;12.80;6.30;;;;;;;;;;4758388;30;20036;-73
2022/01/21 02:46:04;;;;;;;20.43;6.07;;;;;;;;;;4746157;30;20055;-72
2022/01/21 02:48:29;;;;;;;14.57;6.50;;;;;;;;;;4743562;30;20455;-73
2022/01/21 02:50:55;;;;;;;17.10;7.87;;;;;;;;;;4741798;30;20090;-73
2022/01/21 02:55:48;;;;;;;13.52;5.47;;;;;;;;;;4728113;30;20469;-73
2022/01/21 02:58:13;;;;;;;13.90;6.00;;;;;;;;;;4747962;30;20135;-72
2022/01/21 03:00:39;;;;;;;26.03;6.43;;;;;;;;;;4737247;30;20029;-72
2022/01/21 03:03:05;;;;;;;13.83;5.47;;;;;;;;;;4736425;30;20490;-72
2022/01/21 03:05:31;;;;;;;13.70;5.63;;;;;;;;;;4729655;30;20123;-73
2022/01/21 03:07:56;;;;;;;20.75;5.70;;;;;;;;;;4736854;30;20037;-73
2022/01/21 03:10:22;;;;;;;13.80;5.67;;;;;;;;;;4741446;30;20040;-73
2022/01/21 03:12:48;;;;;;;12.60;4.87;;;;;;;;;;4731016;30;20052;-73
2022/01/21 03:15:13;;;;;;;15.50;5.10;;;;;;;;;;4742941;30;20044;-72
2022/01/21 03:17:39;;;;;;;13.77;5.97;;;;;;;;;;4744271;30;20181;-72
2022/01/21 03:20:06;;;;;;;13.87;5.87;;;;;;;;;;4752405;30;20036;-73
2022/01/21 03:22:31;;;;;;;11.38;5.05;;;;;;;;;;4730070;30;20048;-72
2022/01/21 03:24:57;;;;;;;12.67;5.67;;;;;;;;;;4748783;30;20053;-73
2022/01/21 03:27:22;;;;;;;12.33;5.43;;;;;;;;;;4736572;30;20437;-72
2022/01/21 03:29:48;;;;;;;11.77;5.43;;;;;;;;;;4744160;30;20115;-72
2022/01/21 03:32:13;;;;;;;16.07;4.97;;;;;;;;;;4736536;30;20051;-72
2022/01/21 03:34:38;;;;;;;10.13;5.23;;;;;;;;;;4747978;30;20036;-72
2022/01/21 03:37:04;;;;;;;10.73;4.63;;;;;;;;;;4736849;30;20036;-73
2022/01/21 03:39:29;;;;;;;14.47;5.47;;;;;;;;;;4745674;30;20521;-72
2022/01/21 03:41:55;;;;;;;14.10;4.30;;;;;;;;;;4738465;30;20032;-73
2022/01/21 03:44:20;;;;;;;14.07;5.10;;;;;;;;;;4739495;30;20081;-73
2022/01/21 03:46:46;;;;;;;12.63;4.80;;;;;;;;;;4733948;30;20374;-73
2022/01/21 03:49:11;;;;;;;9.30;4.70;;;;;;;;;;4738882;30;20119;-73
2022/01/21 03:51:37;;;;;;;12.52;4.70;;;;;;;;;;4735451;30;20043;-73
2022/01/21 03:54:03;;;;;;;10.37;4.07;;;;;;;;;;4730983;30;20051;-73
2022/01/21 03:56:28;;;;;;;13.20;4.17;;;;;;;;;;4726824;30;20041;-73
2022/01/21 03:58:54;;;;;;;9.73;4.60;;;;;;;;;;4734066;30;20195;-72
2022/01/21 04:01:21;;;;;;;13.53;4.47;;;;;;;;;;4745765;30;20059;-73
2022/01/21 04:03:46;;;;;;;;;;;;;;;;;;4749589;30;20112;-72
2022/01/21 04:06:11;;;;;;;17.30;4.13;;;;;;;;;;4747337;30;20350;-73
2022/01/21 04:08:37;;;;;;;13.93;5.23;;;;;;;;;;4737032;30;20045;-73
2022/01/21 04:11:03;;;;;;;14.07;5.00;;;;;;;;;;4743642;30;20064;-73
2022/01/21 04:13:28;;;;;;;11.43;3.88;;;;;;;;;;4735536;30;20072;-73
2022/01/21 04:15:55;;;;;;;15.10;4.67;;;;;;;;;;4733010;30;20146;-72
2022/01/21 04:18:22;;;;;;;9.43;4.32;;;;;;;;;;4738446;30;20072;-73
2022/01/21 04:20:48;;;;;;;;;;;;;;;;;;4733512;30;20075;-73
2022/01/21 04:23:14;;;;;;;13.10;5.05;;;;;;;;;;4733426;30;19984;-73
2022/01/21 04:25:40;;;;;;;;;;;;;;;;;;4730838;30;20395;-73
2022/01/21 04:28:05;;;;;;;7.68;4.05;;;;;;;;;;4746149;30;19922;-72
2022/01/21 04:30:31;;;;;;;10.73;4.13;;;;;;;;;;4742862;30;20041;-73
2022/01/21 04:32:57;;;;;;;8.15;4.75;;;;;;;;;;4743753;30;20437;-73
2022/01/21 04:35:23;;;;;;;10.27;3.93;;;;;;;;;;4739570;30;20052;-73
2022/01/21 04:38:02;;;;;;;13.37;3.97;;;;;;;;;;4730422;30;20044;-72
2022/01/21 04:40:31;;;;;;;10.85;4.90;;;;;;;;;;4743987;30;20047;-73
2022/01/21 04:48:25;;;;;;;10.48;4.72;;;;;;;;;;4750244;30;20521;-72
2022/01/21 04:51:13;;;;;;;9.77;3.63;;;;;;;;;;4742123;30;20036;-73
2022/01/21 04:53:39;;;;;;;10.40;3.63;;;;;;;;;;4741943;30;20118;-73
2022/01/21 04:56:05;;;;;;;13.55;3.85;;;;;;;;;;4726002;30;20049;-73
2022/01/21 04:58:30;;;;;;;9.30;4.00;;;;;;;;;;4739881;30;20107;-72
2022/01/21 05:00:55;;;;;;;9.40;3.87;;;;;;;;;;4733959;30;20148;-73
2022/01/21 05:03:21;;;;;;;7.17;3.77;;;;;;;;;;4735547;30;20065;-73
2022/01/21 05:05:47;;;;;;;7.40;3.80;;;;;;;;;;4737432;30;20104;-73
2022/01/21 05:08:23;;;;;;;10.10;3.40;;;;;;;;;;4736711;30;20037;-73
2022/01/21 05:10:49;;;;;;;9.57;4.03;;;;;;;;;;4734945;30;20072;-73
2022/01/21 05:13:17;;;;;;;7.43;3.43;;;;;;;;;;4734574;30;20142;-73
2022/01/21 05:18:27;;;;;;;16.20;3.90;;;;;;;;;;4745882;30;20110;-72
2022/01/21 05:20:52;;;;;;;7.83;3.37;;;;;;;;;;4738705;30;20048;-73
2022/01/21 05:23:18;;;;;;;11.63;4.03;;;;;;;;;;4749258;30;20487;-73
2022/01/21 05:25:43;;;;;;;11.90;3.63;;;;;;;;;;4726009;30;20041;-73
2022/01/21 05:28:09;;;;;;;13.97;3.70;;;;;;;;;;4749375;30;20051;-73
2022/01/21 05:30:34;;;;;;;13.03;3.67;;;;;;;;;;4744522;30;20029;-75
2022/01/21 05:33:00;;;;;;;13.23;3.77;;;;;;;;;;4738202;30;20052;-75
2022/01/21 05:35:25;;;;;;;10.80;3.40;;;;;;;;;;4739129;30;20206;-75
2022/01/21 05:37:51;;;;;;;11.60;3.63;;;;;;;;;;4739411;30;20059;-75
2022/01/21 05:40:17;;;;;;;13.17;3.33;;;;;;;;;;4742806;30;20090;-75
2022/01/21 05:42:43;;;;;;;7.07;3.40;;;;;;;;;;4740068;30;20079;-73
2022/01/21 05:47:35;;;;;;;11.60;3.55;;;;;;;;;;4740122;30;20048;-74
2022/01/21 05:50:01;;;;;;;11.47;2.80;;;;;;;;;;4739950;30;20109;-74
2022/01/21 05:52:37;;;;;;;15.77;3.40;;;;;;;;;;4743236;30;20032;-74
2022/01/21 05:55:03;;;;;;;13.77;3.83;;;;;;;;;;4737318;30;20083;-74
2022/01/21 05:57:30;;;;;;;6.53;3.00;;;;;;;;;;4750263;30;20072;-74
2022/01/21 05:59:56;;;;;;;10.80;3.05;;;;;;;;;;4735945;30;20120;-74
2022/01/21 06:02:21;;;;;;;9.32;2.88;;;;;;;;;;4735885;30;20060;-76
2022/01/21 06:04:50;;;;;;;9.50;3.10;;;;;;;;;;4741454;30;20052;-74
2022/01/21 06:07:17;;;;;;;5.60;2.90;;;;;;;;;;4732911;30;20059;-76
2022/01/21 06:09:43;;;;;;;8.77;2.63;;;;;;;;;;4740021;30;20040;-76
2022/01/21 06:12:09;;;;;;;7.83;2.90;;;;;;;;;;4735617;30;20048;-76
2022/01/21 06:14:36;;;;;;;13.23;2.88;;;;;;;;;;4740828;30;20032;-76
2022/01/21 06:17:02;;;;;;;7.28;2.97;;;;;;;;;;4735818;30;20141;-76
2022/01/21 06:19:27;;;;;;;11.57;3.33;;;;;;;;;;4741031;30;20144;-76
2022/01/21 06:21:53;;;;;;;8.37;2.57;;;;;;;;;;4733060;30;20054;-76
2022/01/21 06:24:18;;;;;;;6.47;3.07;;;;;;;;;;4750764;30;20059;-73
2022/01/21 06:26:44;;;;;;;4.73;2.23;;;;;;;;;;4734242;30;20106;-74
2022/01/21 06:29:10;;;;;;;8.85;2.70;;;;;;;;;;4748560;30;20036;-73
2022/01/21 06:31:35;;;;;;;6.30;2.73;;;;;;;;;;4739932;30;20059;-73
2022/01/21 06:34:01;;;;;;;8.70;3.43;;;;;;;;;;4745639;30;20461;-74
2022/01/21 06:36:26;;;;;;;10.57;3.07;;;;;;;;;;4739069;30;20052;-73
2022/01/21 06:38:53;;;;;;;6.13;3.23;;;;;;;;;;4740339;30;20049;-73
2022/01/21 06:41:18;;;;;;;8.02;3.33;;;;;;;;;;4738339;30;20051;-73
2022/01/21 06:43:43;;;;;;;8.23;2.87;;;;;;;;;;4740713;30;20135;-74
2022/01/21 06:46:10;;;;;;;7.70;2.43;;;;;;;;;;4744870;30;20089;-74
2022/01/21 06:48:36;;;;;;;5.85;2.72;;;;;;;;;;4745156;30;20145;-73
2022/01/21 06:51:01;;;;;;;5.60;2.60;;;;;;;;;;4743305;30;20036;-73
2022/01/21 06:53:27;;;;;;;9.87;2.90;;;;;;;;;;4745315;30;20489;-74
2022/01/21 06:55:53;;;;;;;11.00;3.13;;;;;;;;;;4737419;30;20044;-74
2022/01/21 06:58:18;;;;;;;8.00;2.78;;;;;;;;;;4737909;30;20129;-73
2022/01/21 07:00:43;;;;;;;9.33;3.40;;;;;;;;;;4719950;30;20080;-74
2022/01/21 07:03:09;;;;;;;10.50;2.70;;;;;;;;;;4734576;30;20045;-73
2022/01/21 07:05:34;;;;;;;3.83;2.30;;;;;;;;;;4745263;30;20479;-73
2022/01/21 07:08:01;;;;;;;10.90;3.63;;;;;;;;;;4742412;30;20040;-74
2022/01/21 07:10:27;;;;;;;11.90;3.22;;;;;;;;;;4746918;30;20048;-74
2022/01/21 07:12:53;;;;;;;4.95;2.70;;;;;;;;;;4746397;30;20055;-74
2022/01/21 07:15:19;;;;;;;9.30;3.40;;;;;;;;;;4737366;30;20037;-73
2022/01/21 07:17:53;;;;;;;11.55;2.63;;;;;;;;;;4749047;30;20055;-73
2022/01/21 07:20:20;;;;;;;9.00;3.25;;;;;;;;;;4732589;30;20048;-74
2022/01/21 07:22:46;;;;;;;10.05;4.22;;;;;;;;;;4734960;30;20056;-74
2022/01/21 07:25:13;;;;;;;11.85;3.30;;;;;;;;;;4746347;30;20453;-73
2022/01/21 07:27:38;;;;;;;;;;;;;;;;;;4734308;30;20072;-73
2022/01/21 07:30:05;;;;;;;7.93;2.50;;;;;;;;;;4737061;30;19957;-74
2022/01/21 07:32:30;;;;;;;9.93;3.03;;;;;;;;;;4737557;30;20086;-73
2022/01/21 07:34:56;;;;;;;8.13;2.83;;;;;;;;;;4744077;30;20061;-73
2022/01/21 07:37:21;;;;;;;4.53;2.77;;;;;;;;;;4737879;30;20123;-73
2022/01/21 07:39:47;;;;;;;12.83;3.57;;;;;;;;;;4740659;30;20103;-73
2022/01/21 07:42:12;;;;;;;9.13;3.30;;;;;;;;;;4734593;30;20033;-74
2022/01/21 07:44:38;;;;;;;13.47;3.50;;;;;;;;;;4739429;30;20445;-74
2022/01/21 07:47:04;;;;;;;6.70;3.37;;;;;;;;;;4735847;30;20036;-74
2022/01/21 07:49:30;;;;;;;12.05;2.85;;;;;;;;;;4740475;30;20033;-73
2022/01/21 07:51:55;;;;;;;5.83;2.57;;;;;;;;;;4733383;30;20063;-73
2022/01/21 07:54:21;;;;;;;9.97;2.87;;;;;;;;;;4736302;30;20058;-73
2022/01/21 07:56:47;;;;;;;7.97;2.80;;;;;;;;;;4728707;30;20111;-73
2022/01/21 07:59:13;;;;;;;9.03;3.30;;;;;;;;;;4729597;30;20047;-73
2022/01/21 08:01:39;;;;;;;10.23;4.03;;;;;;;;;;4736622;30;20036;-76
2022/01/21 08:04:06;;;;;;;8.15;2.72;;;;;;;;;;4741334;30;20043;-76
2022/01/21 08:06:31;;;;;;;6.30;2.95;;;;;;;;;;4743128;30;20045;-76
2022/01/21 08:08:57;;;;;;;9.23;2.97;;;;;;;;;;4734082;30;20497;-74
2022/01/21 08:11:23;;;;;;;5.83;2.93;;;;;;;;;;4734407;30;20111;-74
2022/01/21 08:13:49;;;;;;;11.43;4.00;;;;;;;;;;4734199;30;20040;-74
2022/01/21 08:16:15;;;;;;;9.98;3.22;;;;;;;;;;4733515;30;20497;-73
2022/01/21 08:18:40;;;;;;;16.77;4.97;;;;;;;;;;4733654;30;20032;-74
2022/01/21 08:21:06;;;;;;;7.87;3.67;;;;;;;;;;4748607;30;20047;-74
2022/01/21 08:23:31;;;;;;;12.47;5.10;;;;;;;;;;4742718;30;20494;-72
2022/01/21 08:25:56;;;;;;;8.70;4.63;;;;;;;;;;4736352;30;20045;-73
2022/01/21 08:28:22;;;;;;;13.77;5.37;;;;;;;;;;4743050;30;20049;-74
2022/01/21 08:30:48;;;;;;;28.77;11.87;;;;;;;;;;4747317;30;20075;-74
2022/01/21 08:33:13;;;;;;;33.20;11.27;;;;;;;;;;4733745;30;20116;-74
2022/01/21 08:35:39;;;;;;;23.13;10.70;;;;;;;;;;4723004;30;20490;-74
2022/01/21 08:38:05;;;;;;;24.00;8.77;;;;;;;;;;4737952;30;20040;-75
2022/01/21 08:40:31;;;;;;;18.70;7.03;;;;;;;;;;4728408;30;20130;-76
2022/01/21 08:42:57;;;;;;;15.65;6.93;;;;;;;;;;4735185;30;20052;-76
2022/01/21 08:45:23;;;;;;;9.00;3.20;;;;;;;;;;4737712;30;20459;-75
2022/01/21 08:47:48;;;;;;;10.43;3.40;;;;;;;;;;4734902;30;20047;-76
2022/01/21 08:50:17;;;;;;;9.67;3.97;;;;;;;;;;4742186;30;20087;-76
2022/01/21 08:52:43;;;;;;;10.27;3.88;;;;;;;;;;4742559;30;20043;-76
2022/01/21 08:55:12;;;;;;;16.67;3.50;;;;;;;;;;4747748;30;20462;-76
2022/01/21 08:57:40;;;;;;;7.70;2.90;;;;;;;;;;4737325;30;20131;-76
2022/01/21 09:00:26;;;;;;;8.38;2.75;;;;;;;;;;4743219;30;20036;-76
2022/01/21 09:02:51;;;;;;;10.60;2.63;;;;;;;;;;4736684;30;20525;-76
2022/01/21 09:05:17;;;;;;;6.30;2.50;;;;;;;;;;4743062;30;20036;-76
2022/01/21 09:07:43;;;;;;;6.50;3.00;;;;;;;;;;4741902;30;20134;-76
2022/01/21 09:10:09;;;;;;;6.77;2.40;;;;;;;;;;4738591;30;20302;-76
2022/01/21 09:12:35;;;;;;;4.85;2.72;;;;;;;;;;4734001;30;20112;-76
2022/01/21 09:15:00;;;;;;;4.83;2.77;;;;;;;;;;4735906;30;20044;-76
2022/01/21 09:17:26;;;;;;;6.10;2.67;;;;;;;;;;4741028;30;20056;-72
2022/01/21 09:19:51;;;;;;;9.60;3.33;;;;;;;;;;4738894;30;20047;-72
2022/01/21 09:22:17;;;;;;;4.70;2.50;;;;;;;;;;4731766;30;20537;-72
2022/01/21 09:24:43;;;;;;;5.93;2.70;;;;;;;;;;4730084;30;20048;-76
2022/01/21 09:27:09;;;;;;;10.60;3.00;;;;;;;;;;4745670;30;20044;-75
2022/01/21 09:29:34;;;;;;;9.33;2.50;;;;;;;;;;4718165;30;20453;-75
2022/01/21 09:32:01;;;;;;;7.10;2.13;;;;;;;;;;4742851;30;20044;-75
2022/01/21 09:34:27;;;;;;;10.70;2.60;;;;;;;;;;4742810;30;20032;-75
2022/01/21 09:36:55;;;;;;;10.25;3.08;;;;;;;;;;4743231;30;20123;-76
2022/01/21 09:39:20;;;;;;;10.05;3.20;;;;;;;;;;4747404;30;20048;-75
2022/01/21 09:41:46;;;;;;;12.33;2.87;;;;;;;;;;4741243;30;20062;-75
2022/01/21 09:44:13;;;;;;;9.50;3.10;;;;;;;;;;4736806;30;20063;-76
2022/01/21 09:46:42;;;;;;;;;;;;;;;;;;4738671;30;20339;-75
2022/01/21 09:49:25;;;;;;;10.00;3.80;;;;;;;;;;4732600;30;19919;-75
2022/01/21 09:51:54;;;;;;;11.90;5.30;;;;;;;;;;4740188;30;20068;-75
2022/01/21 09:54:21;;;;;;;8.82;4.57;;;;;;;;;;4734639;30;20055;-75
2022/01/21 09:56:47;;;;;;;13.73;4.45;;;;;;;;;;4730971;30;20136;-75
2022/01/21 09:59:17;;;;;;;9.40;4.57;;;;;;;;;;4733800;30;20048;-75
2022/01/21 10:01:42;;;;;;;12.60;5.00;;;;;;;;;;4733255;30;20048;-76
2022/01/21 10:04:08;;;;;;;8.60;5.27;;;;;;;;;;4733165;30;20052;-75
2022/01/21 10:06:34;;;;;;;14.57;4.43;;;;;;;;;;4731179;30;20044;-75
2022/01/21 10:09:02;;;;;;;15.05;4.38;;;;;;;;;;4739352;30;20048;-76
2022/01/21 10:11:27;;;;;;;11.95;4.50;;;;;;;;;;4731128;30;20048;-75
2022/01/21 10:13:53;;;;;;;7.13;4.03;;;;;;;;;;4735862;30;20116;-76
2022/01/21 10:16:18;;;;;;;12.67;4.50;;;;;;;;;;4744333;30;20040;-75
2022/01/21 10:19:27;;;;;;;10.67;4.30;;;;;;;;;;4748902;30;20041;-76
2022/01/21 10:22:13;;;;;;;6.47;3.75;;;;;;;;;;4678733;30;20057;-75
2022/01/21 10:24:53;;;;;;;12.80;3.92;;;;;;;;;;4730618;30;20048;-76
2022/01/21 10:27:29;;;;;;;9.98;4.22;;;;;;;;;;4739895;30;20083;-75
2022/01/21 10:29:56;;;;;;;13.85;3.90;;;;;;;;;;4744696;30;20429;-76
2022/01/21 10:32:39;;;;;;;12.13;5.30;;;;;;;;;;4740975;30;20040;-75
2022/01/21 10:35:34;;;;;;;14.60;3.97;;;;;;;;;;4743422;30;20405;-76
2022/01/21 10:38:23;;;;;;;7.57;3.45;;;;;;;;;;4742906;30;20127;-75
2022/01/21 10:40:49;;;;;;;10.18;4.30;;;;;;;;;;4735885;30;20074;-75
2022/01/21 10:43:16;;;;;;;13.83;5.13;;;;;;;;;;4738317;30;20047;-75
2022/01/21 10:45:57;;;;;;;11.73;5.63;;;;;;;;;;4740474;30;20487;-76
2022/01/21 10:48:22;;;;;;;7.45;3.50;;;;;;;;;;4735954;30;20048;-75
2022/01/21 10:51:24;;;;;;;11.23;3.60;;;;;;;;;;4735600;30;20047;-75
2022/01/21 10:53:50;;;;;;;13.25;4.35;;;;;;;;;;4724872;30;20052;-75
2022/01/21 10:56:17;;;;;;;8.53;4.07;;;;;;;;;;4742059;30;20036;-75
2022/01/21 10:58:45;;;;;;;10.77;4.40;;;;;;;;;;4739848;30;20048;-75
2022/01/21 11:01:16;;;;;;;5.40;3.28;;;;;;;;;;4744221;30;20052;-75
2022/01/21 11:04:01;;;;;;;9.82;3.70;;;;;;;;;;4734260;30;20171;-75
2022/01/21 11:06:34;;;;;;;19.98;8.02;;;;;;;;;;4732840;30;20406;-75
2022/01/21 11:09:37;;;;;;;25.08;11.05;;;;;;;;;;4736250;30;20040;-75
2022/01/21 11:12:11;;;;;;;23.88;9.90;;;;;;;;;;4686084;30;20046;-75
2022/01/21 11:14:53;;;;;;;20.02;9.85;;;;;;;;;;4731884;30;20062;-75
2022/01/21 11:17:19;;;;;;;21.95;10.23;;;;;;;;;;4743276;30;20075;-75
2022/01/21 11:20:07;;;;;;;24.87;9.47;;;;;;;;;;4732273;30;20479;-75
2022/01/21 11:22:34;;;;;;;;;;;;;;;;;;4736442;30;20044;-75
2022/01/21 11:25:00;;;;;;;26.00;9.77;;;;;;;;;;4731060;30;19918;-76
2022/01/21 11:27:26;;;;;;;19.80;8.63;;;;;;;;;;4734224;30;20063;-75
2022/01/21 11:29:53;;;;;;;20.40;10.47;;;;;;;;;;4734992;30;20044;-76
2022/01/21 11:32:18;;;;;;;;;;;;;;;;;;4730236;30;20281;-75
2022/01/21 11:34:44;;;;;;;23.38;10.82;;;;;;;;;;4736492;30;19922;-76
2022/01/21 11:37:10;;;;;;;20.83;10.73;;;;;;;;;;4739364;30;20048;-76
2022/01/21 11:39:36;;;;;;;25.88;12.82;;;;;;;;;;4735241;30;20128;-75
2022/01/21 11:42:04;;;;;;;19.47;10.80;;;;;;;;;;4746269;30;20123;-75
2022/01/21 11:44:31;;;;;;;20.77;8.68;;;;;;;;;;4743076;30;20501;-76
2022/01/21 11:49:40;;;;;;;17.45;9.30;;;;;;;;;;4724412;30;20048;-76
2022/01/21 11:52:15;;;;;;;19.58;8.65;;;;;;;;;;4730387;30;20131;-75
2022/01/21 11:54:41;;;;;;;16.80;9.00;;;;;;;;;;4730271;30;20053;-76
2022/01/21 11:57:08;;;;;;;26.03;11.07;;;;;;;;;;4743638;30;20563;-76
2022/01/21 11:59:36;;;;;;;;;;;;;;;;;;4741478;30;20045;-76
2022/01/21 12:02:20;;;;;;;18.98;10.05;;;;;;;;;;4735001;30;19922;-76
2022/01/21 12:04:49;;;;;;;27.05;11.35;;;;;;;;;;4731251;30;20071;-76
2022/01/21 12:07:33;;;;;;;23.48;10.63;;;;;;;;;;4742039;30;20040;-76
2022/01/21 12:10:07;;;;;;;14.52;6.93;;;;;;;;;;4743227;30;20036;-76
2022/01/21 12:12:56;;;;;;;18.42;7.75;;;;;;;;;;4739631;30;20037;-76
2022/01/21 12:15:34;;;;;;;23.75;8.65;;;;;;;;;;4736084;30;20052;-75
2022/01/21 12:18:06;;;;;;;21.83;9.50;;;;;;;;;;4739933;30;20383;-76
2022/01/21 12:20:34;;;;;;;21.60;10.27;;;;;;;;;;4724374;30;20102;-76
2022/01/21 12:23:12;;;;;;;27.73;12.73;;;;;;;;;;4729813;30;20036;-76
2022/01/21 12:26:17;;;;;;;29.85;14.30;;;;;;;;;;4738321;30;20048;-76
2022/01/21 12:28:59;;;;;;;29.23;14.63;;;;;;;;;;4736878;30;20048;-76
2022/01/21 12:31:50;;;;;;;28.50;13.57;;;;;;;;;;4739609;30;20049;-75
2022/01/21 12:34:16;;;;;;;61.67;24.65;;;;;;;;;;4742081;30;20143;-76
2022/01/21 12:36:53;;;;;;;148.03;58.37;;;;;;;;;;4734758;30;20132;-76
2022/01/21 12:39:48;;;;;;;146.10;57.08;;;;;;;;;;4737354;30;20086;-76
2022/01/21 12:42:19;;;;;;;146.38;56.28;;;;;;;;;;4729778;30;20048;-76
2022/01/21 12:44:45;;;;;;;95.93;39.45;;;;;;;;;;4731969;30;20037;-76
2022/01/21 12:47:31;;;;;;;109.90;46.47;;;;;;;;;;4731705;30;20044;-76
2022/01/21 12:49:59;;;;;;;94.18;43.67;;;;;;;;;;4732657;30;20044;-76
2022/01/21 12:52:46;;;;;;;85.82;37.58;;;;;;;;;;4732084;30;20045;-76
2022/01/21 12:58:15;;;;;;;85.75;34.08;;;;;;;;;;4745732;30;20051;-76
2022/01/21 13:00:41;;;;;;;84.72;32.40;;;;;;;;;;4741062;30;20411;-76
2022/01/21 13:03:44;;;;;;;61.47;24.20;;;;;;;;;;4746730;30;20071;-76
2022/01/21 13:06:19;;;;;;;77.55;31.58;;;;;;;;;;4721200;30;20065;-76
2022/01/21 13:09:02;;;;;;;55.63;22.92;;;;;;;;;;4734102;30;20041;-76
2022/01/21 13:11:29;;;;;;;65.95;27.95;;;;;;;;;;4737314;30;20048;-76
2022/01/21 13:17:01;;;;;;;78.38;30.13;;;;;;;;;;4741829;30;20069;-76
2022/01/21 13:19:31;;;;;;;70.53;31.55;;;;;;;;;;4738807;30;20062;-76
2022/01/21 13:21:57;;;;;;;72.28;30.98;;;;;;;;;;4742920;30;20055;-75
2022/01/21 13:24:28;;;;;;;60.28;29.05;;;;;;;;;;4740449;30;20036;-76
2022/01/21 13:26:55;;;;;;;51.20;23.48;;;;;;;;;;4729770;30;20475;-76
2022/01/21 13:29:29;;;;;;;51.35;21.98;;;;;;;;;;4731149;30;20139;-76
2022/01/21 13:31:57;;;;;;;53.05;23.80;;;;;;;;;;4729679;30;20044;-76
2022/01/21 13:34:31;;;;;;;55.97;27.70;;;;;;;;;;4730890;30;20098;-76
2022/01/21 13:37:04;;;;;;;59.20;27.50;;;;;;;;;;4739890;30;20109;-76
2022/01/21 13:39:32;;;;;;;64.88;29.70;;;;;;;;;;4741057;30;20044;-76
2022/01/21 13:42:03;;;;;;;60.78;26.02;;;;;;;;;;4745131;30;20048;-76
2022/01/21 13:44:42;;;;;;;49.47;21.85;;;;;;;;;;4730601;30;20032;-76
2022/01/21 13:47:33;;;;;;;50.65;22.17;;;;;;;;;;4726938;30;20478;-76
2022/01/21 13:50:15;;;;;;;34.78;16.90;;;;;;;;;;4727513;30;20444;-76
2022/01/21 13:52:53;;;;;;;34.53;17.05;;;;;;;;;;4745777;30;20117;-77
2022/01/21 13:55:28;;;;;;;34.60;18.00;;;;;;;;;;4742087;30;20152;-76
2022/01/21 13:57:55;;;;;;;37.58;19.23;;;;;;;;;;4739066;30;20458;-76
2022/01/21 14:00:25;;;;;;;;;;;;;;;;;;4740078;30;20473;-76
2022/01/21 14:03:02;;;;;;;37.30;17.73;;;;;;;;;;4740268;30;19926;-76
2022/01/21 14:05:44;;;;;;;35.33;16.93;;;;;;;;;;4746581;30;20048;-76
2022/01/21 14:08:11;;;;;;;37.42;18.55;;;;;;;;;;4729179;30;20414;-77
2022/01/21 14:10:37;;;;;;;49.25;21.23;;;;;;;;;;4741439;30;20086;-76
2022/01/21 14:13:02;;;;;;;40.80;19.53;;;;;;;;;;4739221;30;20099;-76
2022/01/21 14:15:32;;;;;;;34.60;17.60;;;;;;;;;;4728479;30;20402;-77
2022/01/21 14:17:58;;;;;;;39.15;19.20;;;;;;;;;;4734633;30;20127;-76
2022/01/21 14:20:24;;;;;;;39.65;17.50;;;;;;;;;;4734722;30;20076;-76
2022/01/21 14:22:50;;;;;;;32.00;16.50;;;;;;;;;;4733182;30;20482;-76
2022/01/21 14:25:15;;;;;;;31.23;16.37;;;;;;;;;;4733574;30;20280;-76
2022/01/21 14:27:49;;;;;;;31.63;17.40;;;;;;;;;;4741242;30;20060;-77
2022/01/21 14:30:17;;;;;;;36.55;16.92;;;;;;;;;;4741479;30;20032;-77
2022/01/21 14:32:51;;;;;;;30.60;18.30;;;;;;;;;;4742548;30;20056;-77
2022/01/21 14:35:18;;;;;;;40.45;19.08;;;;;;;;;;4743943;30;20043;-77
2022/01/21 14:37:47;;;;;;;42.45;19.73;;;;;;;;;;4747597;30;20066;-77
2022/01/21 14:40:15;;;;;;;45.45;19.95;;;;;;;;;;4737463;30;20383;-76
2022/01/21 14:42:41;;;;;;;36.92;19.38;;;;;;;;;;4746150;30;20032;-76
2022/01/21 14:45:16;;;;;;;43.37;21.50;;;;;;;;;;4741367;30;20131;-77
2022/01/21 14:47:42;;;;;;;44.42;23.27;;;;;;;;;;4741633;30;20043;-77
2022/01/21 14:50:11;;;;;;;47.40;25.50;;;;;;;;;;4742901;30;20048;-77
2022/01/21 14:52:43;;;;;;;40.25;19.13;;;;;;;;;;4736859;30;20036;-77
2022/01/21 14:55:14;;;;;;;41.65;20.20;;;;;;;;;;4731106;30;20380;-76
2022/01/21 14:57:51;;;;;;;36.97;19.65;;;;;;;;;;4732314;30;20167;-76
2022/01/21 15:00:23;;;;;;;32.30;17.35;;;;;;;;;;4740730;30;20040;-77
2022/01/21 15:02:49;;;;;;;33.30;17.70;;;;;;;;;;4745226;30;20139;-77
2022/01/21 15:05:14;;;;;;;43.13;20.93;;;;;;;;;;4745526;30;20174;-77
2022/01/21 15:07:42;;;;;;;42.30;22.03;;;;;;;;;;4737587;30;20402;-76
2022/01/21 15:10:22;;;;;;;43.17;20.95;;;;;;;;;;4728335;30;20040;-77
2022/01/21 15:15:33;;;;;;;47.30;23.17;;;;;;;;;;4738266;30;20114;-77
2022/01/21 15:17:59;;;;;;;42.92;21.08;;;;;;;;;;4740287;30;20059;-77
2022/01/21 15:20:36;;;;;;;36.38;18.83;;;;;;;;;;4741743;30;20056;-76
2022/01/21 15:23:03;;;;;;;36.83;19.50;;;;;;;;;;4745596;30;20348;-77
2022/01/21 15:25:29;;;;;;;;;;;;;;;;;;4743241;30;20044;-77
2022/01/21 15:27:55;;;;;;;40.38;18.63;;;;;;;;;;4743528;30;19941;-77
2022/01/21 15:30:23;;;;;;;38.17;19.30;;;;;;;;;;4742459;30;20495;-76
2022/01/21 15:32:49;;;;;;;44.25;22.00;;;;;;;;;;4736311;30;20442;-77
2022/01/21 15:35:14;;;;;;;44.93;23.10;;;;;;;;;;4738807;30;20052;-76
2022/01/21 15:37:40;;;;;;;40.03;22.10;;;;;;;;;;4739841;30;20112;-76
2022/01/21 15:40:07;;;;;;;41.37;21.57;;;;;;;;;;4748151;30;20036;-77